Time;durP1;ratioP1;P1;durP2;ratioP2;P2;SDS_P1;SDS_P2;PMS_P1;PMS_P2;Temp;Humidity;BMP_temperature;BMP_pressure;BME280_temperature;BME280_humidity;BME280_pressure;Samples;Min_cycle;Max_cycle;Signal;HPM_P1;HPM_P2
2021/01/18 00:01:18;;;;;;;;;;;;;;;;;;5044696;28;19921;-82
2021/01/18 00:03:45;;;;;;;;;;;;;;;;;;5044303;28;20432;-81
2021/01/18 00:06:11;;;;;;;;;;;;;;;;;;5044722;28;19921;-81
2021/01/18 00:08:37;;;;;;;;;;;;;;;;;;5045669;28;19921;-82
2021/01/18 00:11:04;;;;;;;;;;;;;;;;;;5045480;28;19932;-81
2021/01/18 00:13:30;;;;;;;;;;;;;;;;;;5046297;28;19925;-81
2021/01/18 00:15:57;;;;;;;;;;;;;;;;;;5045777;28;19921;-83
2021/01/18 00:18:23;;;;;;;;;;;;;;;;;;5045531;28;19928;-83
2021/01/18 00:20:49;;;;;;;;;;;;;;;;;;5048793;28;19921;-82
2021/01/18 00:23:16;;;;;;;;;;;;;;;;;;5051369;28;19921;-83
2021/01/18 00:25:42;;;;;;;;;;;;;;;;;;5052034;28;19928;-83
2021/01/18 00:28:08;;;;;;;;;;;;;;;;;;5045003;28;19928;-83
2021/01/18 00:30:35;;;;;;;;;;;;;;;;;;5051771;28;19969;-82
2021/01/18 00:33:02;;;;;;;;;;;;;;;;;;5058620;28;19952;-82
2021/01/18 00:35:28;;;;;;;;;;;;;;;;;;5055235;28;19928;-83
2021/01/18 00:37:55;;;;;;;;;;;;;;;;;;5044929;28;19921;-80
2021/01/18 00:40:21;;;;;;;;;;;;;;;;;;5044212;28;19925;-81
2021/01/18 00:42:48;;;;;;;;;;;;;;;;;;5044182;28;19928;-79
2021/01/18 00:45:14;;;;;;;;;;;;;;;;;;5044577;28;19932;-82
2021/01/18 00:47:40;;;;;;;;;;;;;;;;;;5045451;28;19928;-81
2021/01/18 00:50:07;;;;;;;;;;;;;;;;;;5045543;28;19928;-82
2021/01/18 00:52:33;;;;;;;;;;;;;;;;;;5045247;28;19928;-80
2021/01/18 00:54:59;;;;;;;;;;;;;;;;;;5044724;28;19972;-82
2021/01/18 00:57:26;;;;;;;;;;;;;;;;;;5044242;28;20289;-82
2021/01/18 00:59:52;;;;;;;;;;;;;;;;;;5043816;28;19921;-80
2021/01/18 01:02:18;;;;;;;;;;;;;;;;;;5044044;28;19921;-82
2021/01/18 01:04:45;;;;;;;;;;;;;;;;;;5043499;28;20372;-82
2021/01/18 01:07:11;;;;;;;;;;;;;;;;;;5042947;28;19928;-81
2021/01/18 01:09:38;;;;;;;;;;;;;;;;;;5043284;28;19928;-82
2021/01/18 01:12:04;;;;;;;;;;;;;;;;;;5043128;28;19948;-82
2021/01/18 01:14:30;;;;;;;;;;;;;;;;;;5044267;28;19930;-82
2021/01/18 01:16:57;;;;;;;;;;;;;;;;;;5044033;28;19921;-82
2021/01/18 01:19:23;;;;;;;;;;;;;;;;;;5044185;28;19944;-82
2021/01/18 01:21:49;;;;;;;;;;;;;;;;;;5044078;28;19974;-81
2021/01/18 01:24:18;;;;;;;;;;;;;;;;;;5043840;28;19928;-81
2021/01/18 01:26:45;;;;;;;;;;;;;;;;;;5044237;28;19921;-81
2021/01/18 01:29:11;;;;;;;;;;;;;;;;;;5045032;28;19975;-81
2021/01/18 01:31:37;;;;;;;;;;;;;;;;;;5044902;28;19921;-81
2021/01/18 01:34:04;;;;;;;;;;;;;;;;;;5045366;28;19925;-80
2021/01/18 01:36:30;;;;;;;;;;;;;;;;;;5046035;28;19928;-82
2021/01/18 01:38:56;;;;;;;;;;;;;;;;;;5045791;28;19943;-81
2021/01/18 01:41:23;;;;;;;;;;;;;;;;;;5044862;28;19921;-81
2021/01/18 01:43:49;;;;;;;;;;;;;;;;;;5046031;28;19921;-79
2021/01/18 01:46:16;;;;;;;;;;;;;;;;;;5047415;28;19921;-81
2021/01/18 01:48:42;;;;;;;;;;;;;;;;;;5047898;28;19921;-81
2021/01/18 01:51:08;;;;;;;;;;;;;;;;;;5046409;28;19929;-81
2021/01/18 01:53:35;;;;;;;;;;;;;;;;;;5046373;28;19971;-81
2021/01/18 01:56:01;;;;;;;;;;;;;;;;;;5046706;28;19928;-81
2021/01/18 01:58:27;;;;;;;;;;;;;;;;;;5052149;28;19932;-81
2021/01/18 02:00:54;;;;;;;;;;;;;;;;;;5055420;28;19925;-81
2021/01/18 02:03:20;;;;;;;;;;;;;;;;;;5049660;28;19928;-81
2021/01/18 02:05:48;;;;;;;;;;;;;;;;;;5053371;28;20405;-83
2021/01/18 02:08:14;;;;;;;;;;;;;;;;;;5049030;28;19948;-80
2021/01/18 02:10:42;;;;;;;;;;;;;;;;;;5047644;28;19975;-80
2021/01/18 02:13:08;;;;;;;;;;;;;;;;;;5050321;28;19928;-83
2021/01/18 02:15:35;;;;;;;;;;;;;;;;;;5053190;28;19967;-81
2021/01/18 02:18:01;;;;;;;;;;;;;;;;;;5057183;28;19928;-82
2021/01/18 02:20:27;;;;;;;;;;;;;;;;;;5056119;28;19944;-80
2021/01/18 02:22:54;;;;;;;;;;;;;;;;;;5056083;28;19928;-80
2021/01/18 02:25:20;;;;;;;;;;;;;;;;;;5056259;28;19920;-80
2021/01/18 02:27:46;;;;;;;;;;;;;;;;;;5056392;28;19928;-80
2021/01/18 02:30:13;;;;;;;;;;;;;;;;;;5054943;28;19975;-82
2021/01/18 02:32:39;;;;;;;;;;;;;;;;;;5056136;28;19921;-80
2021/01/18 02:35:05;;;;;;;;;;;;;;;;;;5054755;28;19920;-80
2021/01/18 02:37:32;;;;;;;;;;;;;;;;;;5055908;28;20004;-80
2021/01/18 02:39:58;;;;;;;;;;;;;;;;;;5056164;28;19928;-81
2021/01/18 02:42:25;;;;;;;;;;;;;;;;;;5053479;28;19928;-82
2021/01/18 02:44:51;;;;;;;;;;;;;;;;;;5049012;28;19944;-82
2021/01/18 02:47:17;;;;;;;;;;;;;;;;;;5048781;28;19921;-82
2021/01/18 02:49:44;;;;;;;;;;;;;;;;;;5048538;28;19925;-83
2021/01/18 02:52:10;;;;;;;;;;;;;;;;;;5047756;28;19928;-82
2021/01/18 02:54:36;;;;;;;;;;;;;;;;;;5047287;28;19983;-82
2021/01/18 02:57:03;;;;;;;;;;;;;;;;;;5046009;28;19928;-84
2021/01/18 02:59:29;;;;;;;;;;;;;;;;;;5047282;28;19925;-80
2021/01/18 03:01:56;;;;;;;;;;;;;;;;;;5046281;28;19971;-83
2021/01/18 03:04:22;;;;;;;;;;;;;;;;;;5044333;28;20282;-83
2021/01/18 03:06:48;;;;;;;;;;;;;;;;;;5043827;28;19928;-83
2021/01/18 03:09:15;;;;;;;;;;;;;;;;;;5043204;28;19925;-83
2021/01/18 03:11:41;;;;;;;;;;;;;;;;;;5042921;28;19921;-81
2021/01/18 03:14:07;;;;;;;;;;;;;;;;;;5042627;28;19921;-81
2021/01/18 03:16:34;;;;;;;;;;;;;;;;;;5042793;28;19925;-82
2021/01/18 03:19:00;;;;;;;;;;;;;;;;;;5044542;28;20431;-82
2021/01/18 03:21:26;;;;;;;;;;;;;;;;;;5044234;28;19928;-82
2021/01/18 03:23:53;;;;;;;;;;;;;;;;;;5044962;28;19921;-83
2021/01/18 03:26:19;;;;;;;;;;;;;;;;;;5044985;28;19928;-83
2021/01/18 03:28:46;;;;;;;;;;;;;;;;;;5045780;28;19921;-82
2021/01/18 03:31:12;;;;;;;;;;;;;;;;;;5045197;28;19925;-82
2021/01/18 03:33:38;;;;;;;;;;;;;;;;;;5044926;28;20381;-82
2021/01/18 03:36:05;;;;;;;;;;;;;;;;;;5049207;28;19943;-82
2021/01/18 03:38:31;;;;;;;;;;;;;;;;;;5043337;28;19928;-82
2021/01/18 03:40:57;;;;;;;;;;;;;;;;;;5043574;28;20293;-82
2021/01/18 03:43:24;;;;;;;;;;;;;;;;;;5043715;28;19925;-82
2021/01/18 03:45:50;;;;;;;;;;;;;;;;;;5043952;28;19921;-82
2021/01/18 03:48:17;;;;;;;;;;;;;;;;;;5044146;28;19928;-82
2021/01/18 03:50:43;;;;;;;;;;;;;;;;;;5043913;28;20050;-82
2021/01/18 03:53:09;;;;;;;;;;;;;;;;;;5044125;28;19928;-82
2021/01/18 03:55:36;;;;;;;;;;;;;;;;;;5043355;28;19921;-82
2021/01/18 03:58:02;;;;;;;;;;;;;;;;;;5042863;28;19958;-82
2021/01/18 04:00:28;;;;;;;;;;;;;;;;;;5043820;28;19921;-82
2021/01/18 04:02:55;;;;;;;;;;;;;;;;;;5043068;28;19921;-82
2021/01/18 04:05:21;;;;;;;;;;;;;;;;;;5049167;28;25063;-83
2021/01/18 04:07:48;;;;;;;;;;;;;;;;;;5060053;28;19932;-82
2021/01/18 04:10:14;;;;;;;;;;;;;;;;;;5059149;28;20971;-83
2021/01/18 04:12:40;;;;;;;;;;;;;;;;;;5042537;28;20321;-83
2021/01/18 04:15:07;;;;;;;;;;;;;;;;;;5040879;28;20391;-83
2021/01/18 04:17:33;;;;;;;;;;;;;;;;;;5042448;28;20960;-84
2021/01/18 04:19:59;;;;;;;;;;;;;;;;;;5043387;28;20378;-84
2021/01/18 04:22:26;;;;;;;;;;;;;;;;;;5041774;28;20407;-84
2021/01/18 04:24:52;;;;;;;;;;;;;;;;;;5042877;28;20819;-84
2021/01/18 04:27:18;;;;;;;;;;;;;;;;;;5041917;28;20379;-84
2021/01/18 04:29:45;;;;;;;;;;;;;;;;;;5042001;28;20411;-83
2021/01/18 04:32:11;;;;;;;;;;;;;;;;;;5040584;28;20852;-83
2021/01/18 04:34:38;;;;;;;;;;;;;;;;;;5039625;28;20433;-84
2021/01/18 04:37:04;;;;;;;;;;;;;;;;;;5039710;28;20379;-84
2021/01/18 04:39:30;;;;;;;;;;;;;;;;;;5041156;28;20387;-84
2021/01/18 04:41:57;;;;;;;;;;;;;;;;;;5042067;28;20379;-84
2021/01/18 04:44:23;;;;;;;;;;;;;;;;;;5040976;28;20413;-85
2021/01/18 04:46:49;;;;;;;;;;;;;;;;;;5040407;28;20414;-85
2021/01/18 04:49:16;;;;;;;;;;;;;;;;;;5041724;28;20403;-84
2021/01/18 04:51:42;;;;;;;;;;;;;;;;;;5039916;28;20762;-83
2021/01/18 04:54:09;;;;;;;;;;;;;;;;;;5039599;28;20414;-84
2021/01/18 04:56:35;;;;;;;;;;;;;;;;;;5040449;28;20444;-83
2021/01/18 04:59:01;;;;;;;;;;;;;;;;;;5040303;28;20862;-84
2021/01/18 05:01:28;;;;;;;;;;;;;;;;;;5040300;28;20394;-83
2021/01/18 05:03:54;;;;;;;;;;;;;;;;;;5040024;28;20402;-83
2021/01/18 05:06:20;;;;;;;;;;;;;;;;;;5040682;28;20391;-83
2021/01/18 05:08:47;;;;;;;;;;;;;;;;;;5042354;28;20407;-83
2021/01/18 05:11:13;;;;;;;;;;;;;;;;;;5048887;28;20399;-84
2021/01/18 05:13:40;;;;;;;;;;;;;;;;;;5040441;28;20433;-84
2021/01/18 05:16:06;;;;;;;;;;;;;;;;;;5039138;28;20388;-84
2021/01/18 05:18:32;;;;;;;;;;;;;;;;;;5039031;28;20387;-84
2021/01/18 05:20:59;;;;;;;;;;;;;;;;;;5037350;28;20418;-83
2021/01/18 05:23:25;;;;;;;;;;;;;;;;;;5042543;28;20414;-81
2021/01/18 05:25:52;;;;;;;;;;;;;;;;;;5040125;28;20382;-84
2021/01/18 05:28:18;;;;;;;;;;;;;;;;;;5037814;28;20399;-84
2021/01/18 05:30:44;;;;;;;;;;;;;;;;;;5037332;28;20394;-82
2021/01/18 05:33:11;;;;;;;;;;;;;;;;;;5037907;28;20772;-83
2021/01/18 05:35:37;;;;;;;;;;;;;;;;;;5042091;28;20437;-82
2021/01/18 05:38:05;;;;;;;;;;;;;;;;;;5041684;28;20843;-83
2021/01/18 05:40:32;;;;;;;;;;;;;;;;;;5041709;28;20391;-83
2021/01/18 05:42:58;;;;;;;;;;;;;;;;;;5042168;28;20550;-82
2021/01/18 05:45:24;;;;;;;;;;;;;;;;;;5042793;28;20878;-83
2021/01/18 05:47:51;;;;;;;;;;;;;;;;;;5042168;28;20394;-83
2021/01/18 05:50:17;;;;;;;;;;;;;;;;;;5041220;28;20383;-83
2021/01/18 05:52:44;;;;;;;;;;;;;;;;;;5041974;28;20415;-83
2021/01/18 05:55:10;;;;;;;;;;;;;;;;;;5042199;28;20391;-83
2021/01/18 05:57:36;;;;;;;;;;;;;;;;;;5041944;28;20390;-83
2021/01/18 06:00:03;;;;;;;;;;;;;;;;;;5041619;28;20395;-83
2021/01/18 06:02:29;;;;;;;;;;;;;;;;;;5042133;28;20498;-83
2021/01/18 06:04:56;;;;;;;;;;;;;;;;;;5041700;28;20395;-83
2021/01/18 06:07:23;;;;;;;;;;;;;;;;;;5042101;28;20383;-84
2021/01/18 06:09:49;;;;;;;;;;;;;;;;;;5041789;28;20450;-83
2021/01/18 06:12:16;;;;;;;;;;;;;;;;;;5042459;28;20406;-84
2021/01/18 06:14:42;;;;;;;;;;;;;;;;;;5042339;28;20398;-83
2021/01/18 06:17:09;;;;;;;;;;;;;;;;;;5041018;28;20410;-83
2021/01/18 06:19:35;;;;;;;;;;;;;;;;;;5041685;28;20390;-82
2021/01/18 06:22:01;;;;;;;;;;;;;;;;;;5042683;28;20386;-82
2021/01/18 06:24:28;;;;;;;;;;;;;;;;;;5046640;28;20386;-82
2021/01/18 06:26:54;;;;;;;;;;;;;;;;;;5056750;28;20367;-81
2021/01/18 06:29:21;;;;;;;;;;;;;;;;;;5059990;28;20390;-81
2021/01/18 06:31:47;;;;;;;;;;;;;;;;;;5053608;28;20395;-83
2021/01/18 06:34:13;;;;;;;;;;;;;;;;;;5044045;28;20418;-82
2021/01/18 06:36:40;;;;;;;;;;;;;;;;;;5043637;28;20456;-82
2021/01/18 06:39:06;;;;;;;;;;;;;;;;;;5043057;28;20391;-81
2021/01/18 06:41:32;;;;;;;;;;;;;;;;;;5042336;28;20889;-81
2021/01/18 06:43:59;;;;;;;;;;;;;;;;;;5045008;28;20405;-82
2021/01/18 06:46:26;;;;;;;;;;;;;;;;;;5054094;28;20791;-81
2021/01/18 06:48:52;;;;;;;;;;;;;;;;;;5045003;28;20407;-81
2021/01/18 06:51:19;;;;;;;;;;;;;;;;;;5047685;28;20387;-82
2021/01/18 06:53:45;;;;;;;;;;;;;;;;;;5054199;28;20422;-79
2021/01/18 06:56:11;;;;;;;;;;;;;;;;;;5056988;28;20387;-79
2021/01/18 06:58:38;;;;;;;;;;;;;;;;;;5057552;28;20399;-79
2021/01/18 07:01:04;;;;;;;;;;;;;;;;;;5053297;28;20387;-80
2021/01/18 07:03:30;;;;;;;;;;;;;;;;;;5050285;28;20418;-81
2021/01/18 07:05:57;;;;;;;;;;;;;;;;;;5045668;28;20384;-81
2021/01/18 07:08:23;;;;;;;;;;;;;;;;;;5041368;28;20407;-82
2021/01/18 07:10:50;;;;;;;;;;;;;;;;;;5040338;28;20390;-82
2021/01/18 07:13:16;;;;;;;;;;;;;;;;;;5040395;28;20411;-83
2021/01/18 07:15:42;;;;;;;;;;;;;;;;;;5039842;28;20395;-81
2021/01/18 07:18:09;;;;;;;;;;;;;;;;;;5039308;28;20445;-82
2021/01/18 07:20:35;;;;;;;;;;;;;;;;;;5040733;28;20391;-82
2021/01/18 07:23:01;;;;;;;;;;;;;;;;;;5040428;28;20415;-82
2021/01/18 07:25:28;;;;;;;;;;;;;;;;;;5040080;28;20422;-82
2021/01/18 07:27:54;;;;;;;;;;;;;;;;;;5039736;28;20380;-82
2021/01/18 07:30:21;;;;;;;;;;;;;;;;;;5039286;28;20388;-82
2021/01/18 07:32:47;;;;;;;;;;;;;;;;;;5039573;28;20412;-82
2021/01/18 07:35:13;;;;;;;;;;;;;;;;;;5039680;28;20399;-82
2021/01/18 07:37:40;;;;;;;;;;;;;;;;;;5041152;28;20509;-82
2021/01/18 07:40:06;;;;;;;;;;;;;;;;;;5052415;28;20383;-79
2021/01/18 07:42:32;;;;;;;;;;;;;;;;;;5058034;28;20418;-80
2021/01/18 07:44:59;;;;;;;;;;;;;;;;;;5052236;28;20410;-82
2021/01/18 07:47:25;;;;;;;;;;;;;;;;;;5041067;28;20441;-82
2021/01/18 07:49:52;;;;;;;;;;;;;;;;;;5039941;28;20411;-82
2021/01/18 07:52:18;;;;;;;;;;;;;;;;;;5039178;28;20459;-81
2021/01/18 07:54:44;;;;;;;;;;;;;;;;;;5040701;28;20372;-85
2021/01/18 07:57:10;;;;;;;;;;;;;;;;;;5048683;28;20404;-81
2021/01/18 07:59:37;;;;;;;;;;;;;;;;;;5024727;28;20390;-80
2021/01/18 08:02:03;;;;;;;;;;;;;;;;;;5033284;28;20882;-82
2021/01/18 08:04:30;;;;;;;;;;;;;;;;;;5040542;28;20441;-84
2021/01/18 08:06:56;;;;;;;;;;;;;;;;;;5040963;28;20384;-81
2021/01/18 08:09:23;;;;;;;;;;;;;;;;;;5040501;28;20407;-80
2021/01/18 08:11:49;;;;;;;;;;;;;;;;;;5041159;28;20384;-81
2021/01/18 08:14:15;;;;;;;;;;;;;;;;;;5040913;28;20404;-80
2021/01/18 08:16:42;;;;;;;;;;;;;;;;;;5040422;28;20383;-81
2021/01/18 08:19:10;;;;;;;;;;;;;;;;;;5044260;28;20391;-81
2021/01/18 08:21:36;;;;;;;;;;;;;;;;;;5052689;28;20390;-81
2021/01/18 08:24:02;;;;;;;;;;;;;;;;;;5021045;28;20413;-80
2021/01/18 08:26:28;;;;;;;;;;;;;;;;;;5019221;28;20394;-81
2021/01/18 08:28:55;;;;;;;;;;;;;;;;;;5035066;28;20419;-81
2021/01/18 08:31:23;;;;;;;;;;;;;;;;;;5037874;28;20388;-81
2021/01/18 08:33:49;;;;;;;;;;;;;;;;;;5038191;28;20883;-80
2021/01/18 08:36:16;;;;;;;;;;;;;;;;;;5039845;28;20420;-80
2021/01/18 08:38:42;;;;;;;;;;;;;;;;;;5040056;28;20437;-81
2021/01/18 08:41:08;;;;;;;;;;;;;;;;;;5039987;28;20390;-81
2021/01/18 08:43:35;;;;;;;;;;;;;;;;;;5039466;28;20403;-81
2021/01/18 08:46:01;;;;;;;;;;;;;;;;;;5040052;28;20384;-81
2021/01/18 08:48:29;;;;;;;;;;;;;;;;;;5039710;28;20415;-81
2021/01/18 08:50:58;;;;;;;;;;;;;;;;;;5039575;28;20437;-80
2021/01/18 08:53:24;;;;;;;;;;;;;;;;;;5039450;28;20421;-81
2021/01/18 08:55:51;;;;;;;;;;;;;;;;;;5039298;28;20475;-81
2021/01/18 08:58:17;;;;;;;;;;;;;;;;;;5037117;28;20387;-82
2021/01/18 09:00:44;;;;;;;;;;;;;;;;;;5038118;28;20387;-82
2021/01/18 09:03:10;;;;;;;;;;;;;;;;;;5037184;28;20399;-80
2021/01/18 09:05:37;;;;;;;;;;;;;;;;;;5038828;28;20384;-82
2021/01/18 09:08:03;;;;;;;;;;;;;;;;;;5038709;28;20387;-82
2021/01/18 09:10:30;;;;;;;;;;;;;;;;;;5039166;28;20379;-84
2021/01/18 09:12:57;;;;;;;;;;;;;;;;;;5039261;28;20438;-84
2021/01/18 09:15:23;;;;;;;;;;;;;;;;;;5039765;28;20816;-85
2021/01/18 09:17:50;;;;;;;;;;;;;;;;;;5041326;28;20391;-84
2021/01/18 09:20:19;;;;;;;;;;;;;;;;;;5040640;28;20439;-83
2021/01/18 09:22:45;;;;;;;;;;;;;;;;;;5039766;28;20411;-86
2021/01/18 09:25:12;;;;;;;;;;;;;;;;;;5039867;28;20388;-84
2021/01/18 09:27:41;;;;;;;;;;;;;;;;;;5039429;28;20384;-85
2021/01/18 09:30:08;;;;;;;;;;;;;;;;;;5034633;28;20403;-85
2021/01/18 09:32:34;;;;;;;;;;;;;;;;;;5043140;28;20413;-86
2021/01/18 09:35:01;;;;;;;;;;;;;;;;;;5039219;28;20371;-84
2021/01/18 09:37:27;;;;;;;;;;;;;;;;;;5038324;28;20406;-84
2021/01/18 09:39:54;;;;;;;;;;;;;;;;;;5039801;28;20386;-84
2021/01/18 09:42:20;;;;;;;;;;;;;;;;;;5040083;28;20428;-84
2021/01/18 09:44:47;;;;;;;;;;;;;;;;;;5042536;28;20383;-84
2021/01/18 09:47:13;;;;;;;;;;;;;;;;;;5045955;28;20383;-83
2021/01/18 09:49:40;;;;;;;;;;;;;;;;;;5041329;28;20418;-81
2021/01/18 09:52:06;;;;;;;;;;;;;;;;;;5039797;28;20395;-83
2021/01/18 09:54:32;;;;;;;;;;;;;;;;;;5035084;28;20415;-83
2021/01/18 09:56:59;;;;;;;;;;;;;;;;;;5047413;28;20418;-83
2021/01/18 09:59:25;;;;;;;;;;;;;;;;;;5042289;28;20422;-83
2021/01/18 10:01:52;;;;;;;;;;;;;;;;;;5038476;28;20414;-82
2021/01/18 10:04:18;;;;;;;;;;;;;;;;;;5040197;28;20404;-82
2021/01/18 10:06:44;;;;;;;;;;;;;;;;;;5049821;28;20910;-82
2021/01/18 10:09:11;;;;;;;;;;;;;;;;;;5037800;28;20411;-82
2021/01/18 10:11:38;;;;;;;;;;;;;;;;;;5037357;28;20438;-82
2021/01/18 10:14:04;;;;;;;;;;;;;;;;;;5038371;28;20408;-82
2021/01/18 10:16:31;;;;;;;;;;;;;;;;;;5037702;28;20379;-81
2021/01/18 10:18:57;;;;;;;;;;;;;;;;;;5038063;28;20390;-81
2021/01/18 10:21:23;;;;;;;;;;;;;;;;;;5042464;28;20390;-81
2021/01/18 10:23:50;;;;;;;;;;;;;;;;;;5056631;28;20399;-82
2021/01/18 10:26:16;;;;;;;;;;;;;;;;;;5043879;28;20395;-82
2021/01/18 10:28:42;;;;;;;;;;;;;;;;;;5044125;28;20419;-82
2021/01/18 10:31:09;;;;;;;;;;;;;;;;;;5044843;28;20406;-82
2021/01/18 10:33:35;;;;;;;;;;;;;;;;;;5043307;28;20494;-82
2021/01/18 10:36:02;;;;;;;;;;;;;;;;;;5043879;28;20445;-82
2021/01/18 10:38:28;;;;;;;;;;;;;;;;;;5046013;28;20406;-82
2021/01/18 10:40:55;;;;;;;;;;;;;;;;;;5044490;28;20396;-82
2021/01/18 10:43:21;;;;;;;;;;;;;;;;;;5046518;28;20457;-83
2021/01/18 10:45:47;;;;;;;;;;;;;;;;;;5046658;28;20857;-82
2021/01/18 10:48:14;;;;;;;;;;;;;;;;;;5039011;28;20386;-81
2021/01/18 10:50:40;;;;;;;;;;;;;;;;;;5033531;28;20403;-81
2021/01/18 10:53:07;;;;;;;;;;;;;;;;;;5033849;28;20513;-82
2021/01/18 10:55:33;;;;;;;;;;;;;;;;;;5047422;28;20855;-82
2021/01/18 10:57:59;;;;;;;;;;;;;;;;;;5044749;28;20376;-81
2021/01/18 11:00:27;;;;;;;;;;;;;;;;;;5042853;28;20390;-81
2021/01/18 11:02:53;;;;;;;;;;;;;;;;;;5048614;28;20415;-81
2021/01/18 11:05:19;;;;;;;;;;;;;;;;;;5050485;28;20376;-82
2021/01/18 11:07:46;;;;;;;;;;;;;;;;;;5040397;28;20391;-83
2021/01/18 11:10:12;;;;;;;;;;;;;;;;;;5040171;28;20412;-84
2021/01/18 11:12:40;;;;;;;;;;;;;;;;;;5043728;28;20407;-83
2021/01/18 11:15:06;;;;;;;;;;;;;;;;;;5049533;28;20396;-80
2021/01/18 11:17:33;;;;;;;;;;;;;;;;;;5051795;28;20391;-81
2021/01/18 11:19:59;;;;;;;;;;;;;;;;;;5047622;28;20386;-81
2021/01/18 11:22:26;;;;;;;;;;;;;;;;;;5045980;28;20412;-83
2021/01/18 11:24:52;;;;;;;;;;;;;;;;;;5051935;28;20644;-83
2021/01/18 11:27:20;;;;;;;;;;;;;;;;;;5049046;28;20386;-84
2021/01/18 11:29:46;;;;;;;;;;;;;;;;;;5052274;28;20427;-84
2021/01/18 11:32:12;;;;;;;;;;;;;;;;;;5050178;28;20387;-79
2021/01/18 11:34:39;;;;;;;;;;;;;;;;;;5050362;28;20406;-81
2021/01/18 11:37:07;;;;;;;;;;;;;;;;;;5040561;28;20802;-82
2021/01/18 11:39:34;;;;;;;;;;;;;;;;;;5040464;28;20368;-82
2021/01/18 11:42:00;;;;;;;;;;;;;;;;;;5040093;28;20395;-81
2021/01/18 11:44:26;;;;;;;;;;;;;;;;;;5041331;28;20396;-82
2021/01/18 11:46:53;;;;;;;;;;;;;;;;;;5040024;28;20441;-82
2021/01/18 11:49:19;;;;;;;;;;;;;;;;;;5038946;28;20457;-81
2021/01/18 11:51:46;;;;;;;;;;;;;;;;;;5019077;28;20406;-81
2021/01/18 11:54:12;;;;;;;;;;;;;;;;;;5026838;28;20418;-80
2021/01/18 11:56:39;;;;;;;;;;;;;;;;;;5033968;28;21387;-81
2021/01/18 11:59:06;;;;;;;;;;;;;;;;;;5039610;28;20998;-81
2021/01/18 12:01:32;;;;;;;;;;;;;;;;;;5038758;28;20391;-82
2021/01/18 12:03:59;;;;;;;;;;;;;;;;;;5037804;28;20415;-81
2021/01/18 12:06:25;;;;;;;;;;;;;;;;;;5039910;28;20431;-80
2021/01/18 12:08:52;;;;;;;;;;;;;;;;;;5037734;28;20419;-81
2021/01/18 12:11:18;;;;;;;;;;;;;;;;;;5032143;28;20394;-82
2021/01/18 12:13:44;;;;;;;;;;;;;;;;;;5020947;28;20447;-82
2021/01/18 12:16:11;;;;;;;;;;;;;;;;;;5024488;28;20380;-79
2021/01/18 12:18:37;;;;;;;;;;;;;;;;;;5039780;28;20742;-82
2021/01/18 12:21:04;;;;;;;;;;;;;;;;;;5041704;28;20396;-82
2021/01/18 12:23:31;;;;;;;;;;;;;;;;;;5042576;28;20423;-82
2021/01/18 12:25:58;;;;;;;;;;;;;;;;;;5039652;28;20380;-80
2021/01/18 12:28:24;;;;;;;;;;;;;;;;;;5038675;28;20387;-83
2021/01/18 12:30:51;;;;;;;;;;;;;;;;;;5039187;28;20387;-83
2021/01/18 12:33:17;;;;;;;;;;;;;;;;;;5040128;28;20419;-82
2021/01/18 12:35:43;;;;;;;;;;;;;;;;;;5039919;28;20852;-82
2021/01/18 12:38:10;;;;;;;;;;;;;;;;;;5038525;28;20391;-80
2021/01/18 12:40:36;;;;;;;;;;;;;;;;;;5037956;28;20848;-82
2021/01/18 12:43:03;;;;;;;;;;;;;;;;;;5038636;28;20407;-82
2021/01/18 12:45:29;;;;;;;;;;;;;;;;;;5037830;28;20760;-83
2021/01/18 12:47:56;;;;;;;;;;;;;;;;;;5038915;28;20888;-83
2021/01/18 12:50:22;;;;;;;;;;;;;;;;;;5038487;28;20453;-82
2021/01/18 12:52:50;;;;;;;;;;;;;;;;;;5038129;28;20419;-82
2021/01/18 12:55:16;;;;;;;;;;;;;;;;;;5039417;28;20395;-81
2021/01/18 12:57:43;;;;;;;;;;;;;;;;;;5038609;28;20399;-81
2021/01/18 13:00:09;;;;;;;;;;;;;;;;;;5038379;28;20391;-81
2021/01/18 13:02:35;;;;;;;;;;;;;;;;;;5038716;28;20434;-79
2021/01/18 13:05:02;;;;;;;;;;;;;;;;;;5039102;28;20396;-81
2021/01/18 13:07:28;;;;;;;;;;;;;;;;;;5046874;28;20384;-79
2021/01/18 13:09:58;;;;;;;;;;;;;;;;;;5043714;28;20407;-81
2021/01/18 13:12:24;;;;;;;;;;;;;;;;;;5038287;28;20419;-81
2021/01/18 13:14:50;;;;;;;;;;;;;;;;;;5038088;28;20860;-80
2021/01/18 13:17:17;;;;;;;;;;;;;;;;;;5037431;28;20398;-79
2021/01/18 13:19:43;;;;;;;;;;;;;;;;;;5037707;28;20716;-80
2021/01/18 13:22:10;;;;;;;;;;;;;;;;;;5037525;28;20383;-80
2021/01/18 13:24:37;;;;;;;;;;;;;;;;;;5035861;28;20414;-80
2021/01/18 13:27:03;;;;;;;;;;;;;;;;;;5035239;28;20383;-80
2021/01/18 13:29:29;;;;;;;;;;;;;;;;;;5035218;28;20411;-81
2021/01/18 13:31:58;;;;;;;;;;;;;;;;;;5035246;28;20810;-81
2021/01/18 13:34:25;;;;;;;;;;;;;;;;;;5035590;28;20397;-80
2021/01/18 13:36:52;;;;;;;;;;;;;;;;;;5035941;28;20407;-80
2021/01/18 13:39:18;;;;;;;;;;;;;;;;;;5036135;28;20391;-79
2021/01/18 13:41:44;;;;;;;;;;;;;;;;;;5035327;28;20859;-79
2021/01/18 13:44:11;;;;;;;;;;;;;;;;;;5035246;28;20403;-81
2021/01/18 13:46:37;;;;;;;;;;;;;;;;;;5022089;28;20394;-80
2021/01/18 13:49:04;;;;;;;;;;;;;;;;;;5016646;28;20418;-80
2021/01/18 13:51:32;;;;;;;;;;;;;;;;;;5016526;28;20409;-80
2021/01/18 13:53:59;;;;;;;;;;;;;;;;;;5015836;28;20917;-81
2021/01/18 13:56:32;;;;;;;;;;;;;;;;;;5038139;28;20393;-79
2021/01/18 13:58:59;;;;;;;;;;;;;;;;;;5040178;28;20371;-78
2021/01/18 14:01:27;;;;;;;;;;;;;;;;;;5039352;28;20444;-80
2021/01/18 14:03:53;;;;;;;;;;;;;;;;;;5040295;28;20430;-80
2021/01/18 14:06:20;;;;;;;;;;;;;;;;;;5039982;28;20384;-80
2021/01/18 14:08:46;;;;;;;;;;;;;;;;;;5047689;28;20402;-81
2021/01/18 14:11:12;;;;;;;;;;;;;;;;;;5048078;28;20911;-81
2021/01/18 14:13:39;;;;;;;;;;;;;;;;;;5040590;28;20415;-82
2021/01/18 14:16:05;;;;;;;;;;;;;;;;;;5040610;28;20383;-81
2021/01/18 14:18:38;;;;;;;;;;;;;;;;;;5040184;28;20383;-81
2021/01/18 14:21:05;;;;;;;;;;;;;;;;;;5040706;28;20727;-81
2021/01/18 14:23:31;;;;;;;;;;;;;;;;;;5040956;28;20414;-82
2021/01/18 14:25:57;;;;;;;;;;;;;;;;;;5045188;28;20379;-82
2021/01/18 14:28:24;;;;;;;;;;;;;;;;;;5047687;28;20755;-82
2021/01/18 14:30:50;;;;;;;;;;;;;;;;;;5042878;28;20394;-81
2021/01/18 14:33:17;;;;;;;;;;;;;;;;;;5041180;28;20410;-82
2021/01/18 14:35:43;;;;;;;;;;;;;;;;;;5041113;28;20393;-80
2021/01/18 14:38:12;;;;;;;;;;;;;;;;;;5041021;28;20391;-82
2021/01/18 14:40:38;;;;;;;;;;;;;;;;;;5047743;28;20751;-80
2021/01/18 14:43:05;;;;;;;;;;;;;;;;;;5047022;28;20457;-81
2021/01/18 14:45:31;;;;;;;;;;;;;;;;;;5044922;28;20385;-80
2021/01/18 14:47:57;;;;;;;;;;;;;;;;;;5067905;28;20384;-79
2021/01/18 14:50:24;;;;;;;;;;;;;;;;;;5050444;28;20418;-79
2021/01/18 14:52:50;;;;;;;;;;;;;;;;;;5051867;28;20447;-79
2021/01/18 14:55:17;;;;;;;;;;;;;;;;;;5050578;28;20391;-80
2021/01/18 14:57:43;;;;;;;;;;;;;;;;;;5043614;28;20395;-82
2021/01/18 15:00:09;;;;;;;;;;;;;;;;;;5040355;28;20391;-80
2021/01/18 15:02:38;;;;;;;;;;;;;;;;;;5044915;28;20443;-82
2021/01/18 15:05:05;;;;;;;;;;;;;;;;;;5041944;28;20499;-81
2021/01/18 15:07:31;;;;;;;;;;;;;;;;;;5042045;28;20394;-82
2021/01/18 15:09:58;;;;;;;;;;;;;;;;;;5044946;28;20451;-83
2021/01/18 15:12:24;;;;;;;;;;;;;;;;;;5045199;28;20407;-81
2021/01/18 15:14:50;;;;;;;;;;;;;;;;;;5049066;28;20391;-80
2021/01/18 15:17:17;;;;;;;;;;;;;;;;;;5052239;28;20748;-80
2021/01/18 15:19:43;;;;;;;;;;;;;;;;;;5051400;28;20458;-80
2021/01/18 15:22:11;;;;;;;;;;;;;;;;;;5050636;28;20387;-80
2021/01/18 15:24:37;;;;;;;;;;;;;;;;;;5053028;28;20406;-82
2021/01/18 15:27:03;;;;;;;;;;;;;;;;;;5068223;28;20388;-82
2021/01/18 15:29:30;;;;;;;;;;;;;;;;;;5052087;28;20414;-82
2021/01/18 15:31:56;;;;;;;;;;;;;;;;;;5043069;28;20383;-82
2021/01/18 15:34:23;;;;;;;;;;;;;;;;;;5039086;28;20391;-83
2021/01/18 15:36:49;;;;;;;;;;;;;;;;;;5040649;28;20379;-84
2021/01/18 15:39:15;;;;;;;;;;;;;;;;;;5042730;28;20390;-84
2021/01/18 15:41:42;;;;;;;;;;;;;;;;;;5039864;28;20479;-84
2021/01/18 15:44:08;;;;;;;;;;;;;;;;;;5039029;28;20407;-84
2021/01/18 15:46:35;;;;;;;;;;;;;;;;;;5039310;28;20395;-84
2021/01/18 15:49:01;;;;;;;;;;;;;;;;;;5039589;28;20419;-84
2021/01/18 15:51:28;;;;;;;;;;;;;;;;;;5038163;28;20387;-86
2021/01/18 15:53:55;;;;;;;;;;;;;;;;;;4994713;28;1226073;-83
2021/01/18 15:56:21;;;;;;;;;;;;;;;;;;5039678;28;20398;-86
2021/01/18 15:58:51;;;;;;;;;;;;;;;;;;5041449;28;20371;-83
2021/01/18 16:01:17;;;;;;;;;;;;;;;;;;5043391;28;20387;-84
2021/01/18 16:03:44;;;;;;;;;;;;;;;;;;5039362;28;20407;-83
2021/01/18 16:06:10;;;;;;;;;;;;;;;;;;5039093;28;20391;-85
2021/01/18 16:08:36;;;;;;;;;;;;;;;;;;5038824;28;20874;-84
2021/01/18 16:11:03;;;;;;;;;;;;;;;;;;5039328;28;20402;-85
2021/01/18 16:13:29;;;;;;;;;;;;;;;;;;5039844;28;20419;-84
2021/01/18 16:15:57;;;;;;;;;;;;;;;;;;5039726;28;20392;-84
2021/01/18 16:18:32;;;;;;;;;;;;;;;;;;5042176;28;20466;-81
2021/01/18 16:20:59;;;;;;;;;;;;;;;;;;5044683;28;20843;-84
2021/01/18 16:23:25;;;;;;;;;;;;;;;;;;5038791;28;20421;-84
2021/01/18 16:25:52;;;;;;;;;;;;;;;;;;5038662;28;20399;-84
2021/01/18 16:28:18;;;;;;;;;;;;;;;;;;5030620;28;20394;-85
2021/01/18 16:30:44;;;;;;;;;;;;;;;;;;5037126;28;20399;-87
2021/01/18 16:33:13;;;;;;;;;;;;;;;;;;5039049;28;20411;-87
2021/01/18 16:35:40;;;;;;;;;;;;;;;;;;5039052;28;20386;-86
2021/01/18 16:38:06;;;;;;;;;;;;;;;;;;5037294;28;20380;-84
2021/01/18 16:40:33;;;;;;;;;;;;;;;;;;5038854;28;20376;-85